createdAt,value
2022-10-30T00:00:33.477Z,101533.09
2022-10-30T00:03:36.392Z,101537.25
2022-10-30T00:06:40.814Z,101531.19
2022-10-30T00:09:43.392Z,101533.06
2022-10-30T00:12:46.167Z,101535.00
2022-10-30T00:15:50.900Z,101530.56
2022-10-30T00:18:53.941Z,101531.63
2022-10-30T00:24:59.902Z,101529.41
2022-10-30T00:28:02.583Z,101523.34
2022-10-30T00:31:06.330Z,101521.41
2022-10-30T00:34:09.492Z,101514.47
2022-10-30T00:37:13.602Z,101515.31
2022-10-30T00:40:17.848Z,101524.97
2022-10-30T00:43:32.521Z,101517.53
2022-10-30T00:46:40.319Z,101513.03
2022-10-30T00:49:51.311Z,101518.00
2022-10-30T00:53:00.956Z,101505.78
2022-10-30T00:56:08.219Z,101507.72
2022-10-30T00:59:13.845Z,101501.91
2022-10-30T01:02:17.649Z,101498.88
2022-10-30T01:05:24.270Z,101490.59
2022-10-30T01:08:28.880Z,101488.09
2022-10-30T01:11:31.500Z,101489.19
2022-10-30T01:14:37.505Z,101484.78
2022-10-30T01:18:30.458Z,101488.44
2022-10-30T01:21:44.549Z,101477.94
2022-10-30T01:25:01.529Z,101478.47
2022-10-30T01:28:15.087Z,101479.56
2022-10-30T01:31:29.511Z,101472.97
2022-10-30T01:37:51.716Z,101481.50
2022-10-30T01:40:55.893Z,101479.00
2022-10-30T01:44:02.841Z,101478.41
2022-10-30T01:47:22.127Z,101464.28
2022-10-30T01:50:34.101Z,101464.88
2022-10-30T01:53:47.234Z,101462.34
2022-10-30T01:57:01.092Z,101459.28
2022-10-30T02:00:07.594Z,101456.25
2022-10-30T02:03:10.855Z,101452.38
2022-10-30T02:06:13.824Z,101450.38
2022-10-30T02:09:17.309Z,101451.50
2022-10-30T02:12:22.172Z,101445.94
2022-10-30T02:15:25.300Z,101454.50
2022-10-30T02:18:30.205Z,101445.91
2022-10-30T02:21:34.525Z,101452.22
2022-10-30T02:24:37.218Z,101460.78
2022-10-30T02:27:40.034Z,101450.47
2022-10-30T02:30:44.254Z,101444.66
2022-10-30T02:33:47.351Z,101446.88
2022-10-30T02:36:51.365Z,101436.09
2022-10-30T02:39:54.226Z,101436.59
2022-10-30T02:42:56.943Z,101437.69
2022-10-30T02:45:59.652Z,101426.63
2022-10-30T02:49:03.985Z,101433.53
2022-10-30T02:52:12.330Z,101432.69
2022-10-30T02:55:15.121Z,101425.19
2022-10-30T02:58:18.408Z,101437.84
2022-10-30T03:01:21.685Z,101445.28
2022-10-30T03:04:24.417Z,101443.34
2022-10-30T03:07:28.585Z,101453.19
2022-10-30T03:10:31.238Z,101443.25
2022-10-30T03:13:35.372Z,101443.50
2022-10-30T03:16:38.959Z,101446.75
2022-10-30T03:19:41.811Z,101437.06
2022-10-30T03:22:45.858Z,101433.97
2022-10-30T03:25:48.601Z,101439.78
2022-10-30T03:28:51.479Z,101425.44
2022-10-30T03:31:54.883Z,101426.53
2022-10-30T03:34:57.465Z,101416.00
2022-10-30T03:38:01.557Z,101419.53
2022-10-30T03:41:05.494Z,101396.91
2022-10-30T03:44:08.205Z,101398.06
2022-10-30T03:50:21.174Z,101404.47
2022-10-30T03:53:26.490Z,101411.66
2022-10-30T03:56:29.705Z,101406.47
2022-10-30T03:59:32.378Z,101396.28
2022-10-30T04:02:35.065Z,101407.00
2022-10-30T04:05:38.294Z,101413.59
2022-10-30T04:08:42.304Z,101414.50
2022-10-30T04:11:45.152Z,101431.63
2022-10-30T04:14:47.845Z,101436.63
2022-10-30T04:17:51.463Z,101437.72
2022-10-30T04:20:54.670Z,101455.38
2022-10-30T04:23:58.693Z,101455.06
2022-10-30T04:27:01.555Z,101455.88
2022-10-30T04:30:04.857Z,101447.25
2022-10-30T04:33:11.820Z,101447.59
2022-10-30T04:36:14.697Z,101454.25
2022-10-30T04:39:18.749Z,101440.91
2022-10-30T04:42:21.358Z,101430.72
2022-10-30T04:45:24.275Z,101439.81
2022-10-30T04:48:27.375Z,101424.94
2022-10-30T04:51:30.289Z,101426.28
2022-10-30T04:54:34.401Z,101420.50
2022-10-30T04:57:37.274Z,101415.31
2022-10-30T05:00:43.783Z,101418.09
2022-10-30T05:03:48.129Z,101420.56
2022-10-30T05:06:53.327Z,101413.69
2022-10-30T05:09:57.371Z,101409.56
2022-10-30T05:13:00.268Z,101400.75
2022-10-30T05:16:02.975Z,101395.25
2022-10-30T05:19:05.586Z,101395.47
2022-10-30T05:22:09.407Z,101391.38
2022-10-30T05:25:13.569Z,101378.97
2022-10-30T05:28:16.126Z,101376.84
2022-10-30T05:31:18.799Z,101389.28
2022-10-30T05:34:21.329Z,101395.09
2022-10-30T05:37:24.142Z,101410.06
2022-10-30T05:40:28.687Z,101419.19
2022-10-30T05:43:31.220Z,101392.13
2022-10-30T05:46:33.975Z,101391.31
2022-10-30T05:49:36.535Z,101401.81
2022-10-30T05:52:39.248Z,101403.47
2022-10-30T05:55:43.345Z,101392.97
2022-10-30T05:58:46.101Z,101403.19
2022-10-30T06:01:48.816Z,101400.22
2022-10-30T06:04:51.416Z,101390.03
2022-10-30T06:07:56.083Z,101382.22
2022-10-30T06:11:00.244Z,101380.28
2022-10-30T06:14:03.566Z,101373.09
2022-10-30T06:17:06.439Z,101365.66
2022-10-30T06:20:09.870Z,101363.72
2022-10-30T06:23:12.544Z,101364.84
2022-10-30T06:26:16.443Z,101369.88
2022-10-30T06:29:19.256Z,101376.22
2022-10-30T06:32:21.993Z,101374.00
2022-10-30T06:35:24.662Z,101366.03
2022-10-30T06:38:27.351Z,101364.09
2022-10-30T06:41:31.261Z,101370.72
2022-10-30T06:44:33.903Z,101370.72
2022-10-30T06:47:36.816Z,101387.88
2022-10-30T06:50:39.750Z,101400.88
2022-10-30T06:53:42.443Z,101400.88
2022-10-30T06:56:50.964Z,101406.41
2022-10-30T06:59:53.787Z,101413.88
2022-10-30T07:02:58.457Z,101419.97
2022-10-30T07:06:02.033Z,101421.38
2022-10-30T07:09:04.742Z,101423.59
2022-10-30T07:12:09.869Z,101413.09
2022-10-30T07:15:12.435Z,101410.06
2022-10-30T07:18:15.105Z,101410.69
2022-10-30T07:21:17.810Z,101422.63
2022-10-30T07:24:20.575Z,101432.88
2022-10-30T07:27:24.718Z,101434.84
2022-10-30T07:30:28.562Z,101424.13
2022-10-30T07:33:31.298Z,101428.91
2022-10-30T07:36:34.070Z,101442.78
2022-10-30T07:39:36.795Z,101432.00
2022-10-30T07:42:41.650Z,101429.25
2022-10-30T07:45:46.020Z,101432.34
2022-10-30T07:48:48.754Z,101443.13
2022-10-30T07:51:51.316Z,101437.34
2022-10-30T07:54:57.344Z,101430.69
2022-10-30T07:58:01.587Z,101440.41
2022-10-30T08:01:04.694Z,101441.22
2022-10-30T08:04:07.524Z,101439.56
2022-10-30T08:07:10.301Z,101447.59
2022-10-30T08:10:13.157Z,101445.41
2022-10-30T08:13:18.690Z,101441.78
2022-10-30T08:16:21.734Z,101440.41
2022-10-30T08:19:24.526Z,101442.34
2022-10-30T08:22:27.253Z,101444.28
2022-10-30T08:25:31.829Z,101449.28
2022-10-30T08:28:35.843Z,101442.63
2022-10-30T08:31:38.505Z,101450.38
2022-10-30T08:34:41.123Z,101446.47
2022-10-30T08:37:43.871Z,101443.13
2022-10-30T08:40:46.656Z,101440.91
2022-10-30T08:43:50.678Z,101441.22
2022-10-30T08:46:53.654Z,101438.09
2022-10-30T08:49:56.216Z,101442.72
2022-10-30T08:53:02.354Z,101441.84
2022-10-30T08:56:05.900Z,101437.38
2022-10-30T08:59:09.986Z,101437.53
2022-10-30T09:02:12.727Z,101440.44
2022-10-30T09:05:15.524Z,101437.66
2022-10-30T09:08:18.187Z,101435.94
2022-10-30T09:11:20.870Z,101443.13
2022-10-30T09:14:25.050Z,101435.28
2022-10-30T09:17:27.982Z,101430.28
2022-10-30T09:20:31.689Z,101426.50
2022-10-30T09:23:34.585Z,101425.25
2022-10-30T09:26:37.148Z,101429.03
2022-10-30T09:29:41.227Z,101433.97
2022-10-30T09:32:43.800Z,101436.72
2022-10-30T09:35:48.288Z,101425.69
2022-10-30T09:38:51.057Z,101427.28
2022-10-30T09:42:10.328Z,101422.53
2022-10-30T09:45:47.851Z,101413.88
2022-10-30T09:49:06.981Z,101421.78
2022-10-30T09:52:17.764Z,101429.81
2022-10-30T09:55:31.164Z,101432.97
2022-10-30T09:58:44.789Z,101435.31
2022-10-30T10:01:53.496Z,101444.69
2022-10-30T10:05:01.210Z,101441.34
2022-10-30T10:08:08.580Z,101442.09
2022-10-30T10:11:15.897Z,101438.91
2022-10-30T10:14:22.765Z,101435.16
2022-10-30T10:17:32.439Z,101439.16
2022-10-30T10:20:41.303Z,101436.91
2022-10-30T10:23:49.570Z,101432.81
2022-10-30T10:26:58.714Z,101446.25
2022-10-30T10:30:06.533Z,101445.47
2022-10-30T10:33:27.517Z,101443.25
2022-10-30T10:36:40.531Z,101438.66
2022-10-30T10:39:57.164Z,101436.59
2022-10-30T10:43:12.596Z,101431.75
2022-10-30T10:46:32.392Z,101442.22
2022-10-30T10:49:47.501Z,101430.16
2022-10-30T10:52:55.418Z,101418.09
2022-10-30T10:56:01.038Z,101418.63
2022-10-30T10:59:09.613Z,101410.22
2022-10-30T11:02:31.588Z,101414.84
2022-10-30T11:05:40.448Z,101405.91
2022-10-30T11:08:46.400Z,101402.22
2022-10-30T11:11:49.715Z,101394.41
2022-10-30T11:14:52.984Z,101396.84
2022-10-30T11:18:02.271Z,101393.63
2022-10-30T11:21:13.707Z,101409.72
2022-10-30T11:24:31.303Z,101405.38
2022-10-30T11:27:37.947Z,101413.38
2022-10-30T11:30:43.553Z,101406.25
2022-10-30T11:33:49.537Z,101405.91
2022-10-30T11:36:54.719Z,101404.69
2022-10-30T11:40:03.784Z,101399.72
2022-10-30T11:43:06.981Z,101396.69
2022-10-30T11:46:12.823Z,101402.06
2022-10-30T11:49:27.801Z,101402.34
2022-10-30T11:52:38.805Z,101399.41
2022-10-30T11:55:47.258Z,101402.03
2022-10-30T11:58:53.078Z,101409.38
2022-10-30T12:02:00.909Z,101404.59
2022-10-30T12:05:04.477Z,101408.91
2022-10-30T12:08:23.787Z,101404.13
2022-10-30T12:11:30.973Z,101407.94
2022-10-30T12:14:34.400Z,101410.22
2022-10-30T12:17:40.255Z,101410.03
2022-10-30T12:20:47.404Z,101406.13
2022-10-30T12:23:56.594Z,101411.41
2022-10-30T12:27:03.631Z,101408.44
2022-10-30T12:30:16.115Z,101406.56
2022-10-30T12:33:25.279Z,101399.47
2022-10-30T12:36:33.532Z,101401.16
2022-10-30T12:39:51.814Z,101405.97
2022-10-30T12:43:03.086Z,101402.09
2022-10-30T12:46:17.252Z,101393.31
2022-10-30T12:49:26.630Z,101403.63
2022-10-30T12:52:35.139Z,101405.53
2022-10-30T12:55:42.541Z,101400.88
2022-10-30T12:58:49.123Z,101399.09
2022-10-30T13:01:59.267Z,101403.78
2022-10-30T13:05:06.608Z,101392.78
2022-10-30T13:08:18.813Z,101391.28
2022-10-30T13:11:30.525Z,101385.69
2022-10-30T13:14:40.157Z,101392.84
2022-10-30T13:17:42.706Z,101393.63
2022-10-30T13:21:02.692Z,101389.16
2022-10-30T13:24:11.955Z,101389.38
2022-10-30T13:27:22.302Z,101386.91
2022-10-30T13:30:30.650Z,101376.34
2022-10-30T13:33:41.168Z,101383.16
2022-10-30T13:36:50.891Z,101377.16
2022-10-30T13:40:05.752Z,101386.91
2022-10-30T13:43:21.890Z,101390.94
2022-10-30T13:46:39.828Z,101382.50
2022-10-30T13:50:00.198Z,101379.91
2022-10-30T13:53:05.729Z,101384.09
2022-10-30T13:56:14.313Z,101383.88
2022-10-30T13:59:32.573Z,101384.69
2022-10-30T14:02:57.338Z,101372.91
2022-10-30T14:06:10.474Z,101385.75
2022-10-30T14:09:22.197Z,101380.28
2022-10-30T14:12:46.433Z,101382.25
2022-10-30T14:15:54.880Z,101383.69
2022-10-30T14:19:02.380Z,101387.44
2022-10-30T14:22:05.014Z,101388.06
2022-10-30T14:25:14.922Z,101393.13
2022-10-30T14:28:21.196Z,101387.47
2022-10-30T14:31:36.983Z,101388.78
2022-10-30T14:34:43.948Z,101389.75
2022-10-30T14:37:57.960Z,101390.97
2022-10-30T14:41:14.387Z,101389.97
2022-10-30T14:44:36.987Z,101397.63
2022-10-30T14:48:08.521Z,101401.97
2022-10-30T14:51:17.684Z,101397.41
2022-10-30T14:54:28.899Z,101396.53
2022-10-30T14:57:52.295Z,101396.75
2022-10-30T15:01:24.813Z,101394.19
2022-10-30T15:04:41.320Z,101389.41
2022-10-30T15:07:52.015Z,101400.13
2022-10-30T15:11:17.836Z,101386.03
2022-10-30T15:14:40.467Z,101382.91
2022-10-30T15:17:53.795Z,101384.00
2022-10-30T15:21:05.050Z,101391.59
2022-10-30T15:24:15.342Z,101392.81
2022-10-30T15:27:20.533Z,101401.03
2022-10-30T15:30:24.698Z,101402.63
2022-10-30T15:33:27.267Z,101391.94
2022-10-30T15:36:41.664Z,101396.75
2022-10-30T15:39:44.231Z,101400.00
2022-10-30T15:42:50.158Z,101401.00
2022-10-30T15:45:54.948Z,101404.47
2022-10-30T15:48:57.678Z,101407.94
2022-10-30T15:52:04.196Z,101411.06
2022-10-30T15:55:10.531Z,101399.53
2022-10-30T15:58:17.430Z,101410.50
2022-10-30T16:01:27.393Z,101410.31
2022-10-30T16:04:34.578Z,101404.38
2022-10-30T16:07:47.071Z,101398.91
2022-10-30T16:10:50.584Z,101391.22
2022-10-30T16:13:53.582Z,101390.75
2022-10-30T16:17:00.299Z,101396.28
2022-10-30T16:20:05.437Z,101394.69
2022-10-30T16:23:09.879Z,101396.44
2022-10-30T16:26:26.013Z,101382.91
2022-10-30T16:29:29.513Z,101390.25
2022-10-30T16:32:32.970Z,101399.16
2022-10-30T16:35:35.603Z,101394.22
2022-10-30T16:38:40.304Z,101401.22
2022-10-30T16:41:43.889Z,101392.63
2022-10-30T16:44:47.440Z,101386.88
2022-10-30T16:47:53.993Z,101391.06
2022-10-30T16:51:01.942Z,101395.00
2022-10-30T16:54:06.183Z,101396.41
2022-10-30T16:57:15.969Z,101396.72
2022-10-30T17:00:25.800Z,101403.41
2022-10-30T17:03:34.968Z,101406.75
2022-10-30T17:06:41.115Z,101408.44
2022-10-30T17:09:46.922Z,101414.03
2022-10-30T17:12:49.507Z,101408.78
2022-10-30T17:15:52.217Z,101415.19
2022-10-30T17:18:56.951Z,101422.09
2022-10-30T17:22:01.734Z,101419.34
2022-10-30T17:25:17.123Z,101420.47
2022-10-30T17:28:27.598Z,101422.13
2022-10-30T17:31:42.576Z,101425.47
2022-10-30T17:34:45.273Z,101432.41
2022-10-30T17:37:47.894Z,101429.59
2022-10-30T17:40:52.021Z,101434.88
2022-10-30T17:43:57.358Z,101434.88
2022-10-30T17:47:01.381Z,101434.03
2022-10-30T17:50:05.509Z,101420.47
2022-10-30T17:53:13.869Z,101429.06
2022-10-30T17:56:20.368Z,101426.53
2022-10-30T17:59:23.048Z,101425.44
2022-10-30T18:02:25.926Z,101433.44
2022-10-30T18:05:31.631Z,101438.41
2022-10-30T18:08:34.376Z,101434.28
2022-10-30T18:11:38.788Z,101443.63
2022-10-30T18:14:43.250Z,101444.19
2022-10-30T18:17:45.864Z,101448.34
2022-10-30T18:20:48.536Z,101439.78
2022-10-30T18:23:52.767Z,101436.97
2022-10-30T18:26:58.819Z,101439.47
2022-10-30T18:30:01.457Z,101443.28
2022-10-30T18:33:04.473Z,101438.59
2022-10-30T18:36:12.099Z,101445.50
2022-10-30T18:39:14.927Z,101438.25
2022-10-30T18:42:19.001Z,101444.03
2022-10-30T18:45:24.202Z,101450.38
2022-10-30T18:48:26.775Z,101450.88
2022-10-30T18:51:30.367Z,101438.13
2022-10-30T18:54:32.914Z,101439.75
2022-10-30T18:57:37.001Z,101441.41
2022-10-30T19:01:10.099Z,101431.13
2022-10-30T19:04:04.600Z,101431.41
2022-10-30T19:07:07.300Z,101435.81
2022-10-30T19:10:10.597Z,101435.25
2022-10-30T19:13:17.010Z,101437.16
2022-10-30T19:16:20.987Z,101429.66
2022-10-30T19:19:23.566Z,101433.25
2022-10-30T19:22:26.389Z,101431.53
2022-10-30T19:25:32.310Z,101435.69
2022-10-30T19:28:38.365Z,101433.19
2022-10-30T19:31:40.920Z,101429.31
2022-10-30T19:34:45.931Z,101428.97
2022-10-30T19:37:48.549Z,101420.13
2022-10-30T19:40:51.807Z,101426.44
2022-10-30T19:43:55.955Z,101427.00
2022-10-30T19:46:58.649Z,101422.50
2022-10-30T19:50:01.187Z,101415.31
2022-10-30T19:53:05.033Z,101419.09
2022-10-30T19:56:10.504Z,101430.09
2022-10-30T19:59:16.235Z,101426.78
2022-10-30T20:02:18.922Z,101429.44
2022-10-30T20:05:24.288Z,101428.03
2022-10-30T20:08:28.010Z,101421.94
2022-10-30T20:11:31.995Z,101428.59
2022-10-30T20:14:35.929Z,101430.44
2022-10-30T20:17:38.629Z,101427.47
2022-10-30T20:20:46.242Z,101436.50
2022-10-30T20:23:48.873Z,101430.41
2022-10-30T20:26:51.681Z,101422.09
2022-10-30T20:29:55.645Z,101429.28
2022-10-30T20:32:58.661Z,101437.47
2022-10-30T20:36:01.810Z,101440.47
2022-10-30T20:39:05.375Z,101448.44
2022-10-30T20:42:10.048Z,101447.53
2022-10-30T20:45:19.709Z,101453.84
2022-10-30T20:48:22.233Z,101449.16
2022-10-30T20:51:24.954Z,101446.91
2022-10-30T20:54:27.549Z,101459.28
2022-10-30T20:57:30.262Z,101452.03
2022-10-30T21:00:34.308Z,101456.16
2022-10-30T21:03:37.059Z,101440.97
2022-10-30T21:06:39.644Z,101440.38
2022-10-30T21:09:42.259Z,101441.16
2022-10-30T21:12:44.887Z,101442.25
2022-10-30T21:15:51.463Z,101446.63
2022-10-30T21:18:54.634Z,101444.69
2022-10-30T21:21:57.302Z,101441.59
2022-10-30T21:25:00.075Z,101450.66
2022-10-30T21:28:03.241Z,101443.75
2022-10-30T21:31:09.523Z,101440.41
2022-10-30T21:34:13.606Z,101443.91
2022-10-30T21:37:16.321Z,101440.34
2022-10-30T21:40:20.078Z,101434.50
2022-10-30T21:43:22.700Z,101436.75
2022-10-30T21:46:28.902Z,101428.22
2022-10-30T21:49:31.598Z,101446.94
2022-10-30T21:52:34.868Z,101444.63
2022-10-30T21:55:38.536Z,101448.50
2022-10-30T21:58:41.314Z,101455.31
2022-10-30T22:01:46.449Z,101460.19
2022-10-30T22:04:49.324Z,101453.03
2022-10-30T22:07:52.615Z,101460.09
2022-10-30T22:10:55.289Z,101459.53
2022-10-30T22:14:00.469Z,101462.78
2022-10-30T22:17:04.512Z,101458.78
2022-10-30T22:20:08.426Z,101456.28
2022-10-30T22:23:11.231Z,101457.94
2022-10-30T22:26:17.631Z,101463.78
2022-10-30T22:29:20.349Z,101455.19
2022-10-30T22:32:24.364Z,101452.94
2022-10-30T22:35:27.095Z,101455.63
2022-10-30T22:38:29.690Z,101456.13
2022-10-30T22:41:37.666Z,101456.94
2022-10-30T22:44:40.967Z,101464.16
2022-10-30T22:47:45.009Z,101454.19
2022-10-30T22:50:47.530Z,101462.38
2022-10-30T22:53:57.020Z,101457.06
2022-10-30T22:56:59.599Z,101452.31
2022-10-30T23:00:02.343Z,101456.47
2022-10-30T23:03:06.381Z,101452.88
2022-10-30T23:06:09.668Z,101462.22
2022-10-30T23:09:17.241Z,101458.06
2022-10-30T23:12:20.091Z,101461.31
2022-10-30T23:15:22.655Z,101451.72
2022-10-30T23:18:26.966Z,101458.06
2022-10-30T23:21:31.664Z,101459.66
2022-10-30T23:24:34.840Z,101465.41
2022-10-30T23:27:37.398Z,101457.75
2022-10-30T23:30:42.927Z,101459.66
2022-10-30T23:33:49.219Z,101462.66
2022-10-30T23:36:52.889Z,101465.06
2022-10-30T23:39:56.801Z,101468.31
2022-10-30T23:43:00.284Z,101466.91
2022-10-30T23:46:03.752Z,101472.91
2022-10-30T23:49:08.790Z,101469.81
2022-10-30T23:52:11.501Z,101465.31
2022-10-30T23:55:14.226Z,101473.81
